Time;durP1;ratioP1;P1;durP2;ratioP2;P2;SDS_P1;SDS_P2;PMS_P1;PMS_P2;Temp;Humidity;BMP_temperature;BMP_pressure;BME280_temperature;BME280_humidity;BME280_pressure;Samples;Min_cycle;Max_cycle;Signal;HPM_P1;HPM_P2
2023/01/04 00:01:24;;;;;;;9.87;5.20;;;9.60;76.40;;;;;;5043918;28;20514;-65
2023/01/04 00:03:52;;;;;;;12.53;5.43;;;9.60;76.40;;;;;;5042964;28;20479;-65
2023/01/04 00:06:21;;;;;;;9.60;6.20;;;9.60;76.60;;;;;;5040444;28;20450;-66
2023/01/04 00:08:49;;;;;;;12.37;5.27;;;9.60;76.60;;;;;;5043403;28;20459;-66
2023/01/04 00:11:20;;;;;;;10.67;5.23;;;9.60;76.60;;;;;;5042079;28;20450;-66
2023/01/04 00:13:50;;;;;;;9.97;5.40;;;9.60;76.40;;;;;;5042324;28;21628;-66
2023/01/04 00:16:20;;;;;;;11.40;5.57;;;9.60;76.40;;;;;;5044026;28;21210;-65
2023/01/04 00:18:49;;;;;;;9.70;5.23;;;9.60;76.60;;;;;;5042619;28;20459;-66
2023/01/04 00:21:20;;;;;;;11.60;5.53;;;9.60;76.70;;;;;;5043361;28;20501;-66
2023/01/04 00:23:50;;;;;;;9.67;6.03;;;9.60;76.70;;;;;;5043213;28;20484;-66
2023/01/04 00:26:21;;;;;;;11.30;5.70;;;9.60;76.60;;;;;;5043132;28;20451;-65
2023/01/04 00:28:53;;;;;;;9.00;5.00;;;9.60;76.40;;;;;;5043097;28;20847;-65
2023/01/04 00:31:23;;;;;;;9.27;5.40;;;9.50;76.40;;;;;;5041999;28;20466;-66
2023/01/04 00:33:53;;;;;;;12.30;6.43;;;9.50;76.40;;;;;;5042143;28;20475;-66
2023/01/04 00:36:22;;;;;;;9.40;6.17;;;9.50;76.60;;;;;;5042636;28;20536;-65
2023/01/04 00:39:05;;;;;;;11.07;6.30;;;9.50;76.40;;;;;;5040904;28;21210;-66
2023/01/04 00:41:37;;;;;;;13.13;7.00;;;9.40;76.50;;;;;;5042699;28;20984;-65
2023/01/04 00:44:25;;;;;;;9.93;6.73;;;9.40;76.50;;;;;;5042076;28;20864;-65
2023/01/04 00:46:53;;;;;;;12.53;7.00;;;9.40;76.40;;;;;;5042561;28;20451;-66
2023/01/04 00:49:21;;;;;;;10.60;7.57;;;9.30;76.30;;;;;;5043148;28;20462;-66
2023/01/04 00:51:50;;;;;;;11.07;6.63;;;9.30;76.30;;;;;;5040566;28;20459;-66
2023/01/04 00:54:19;;;;;;;9.03;6.17;;;9.20;76.30;;;;;;5044248;28;20556;-65
2023/01/04 00:56:49;;;;;;;11.27;6.60;;;9.20;76.30;;;;;;5042721;28;20474;-65
2023/01/04 00:59:19;;;;;;;12.00;7.17;;;9.20;76.50;;;;;;5044080;28;20450;-65
2023/01/04 01:01:47;;;;;;;12.07;6.83;;;9.20;76.50;;;;;;5043550;28;20439;-65
2023/01/04 01:04:18;;;;;;;14.73;7.40;;;9.10;76.40;;;;;;5042650;28;20482;-65
2023/01/04 01:06:47;;;;;;;10.83;7.03;;;9.10;76.30;;;;;;5043045;28;20443;-65
2023/01/04 01:09:15;;;;;;;12.50;8.10;;;9.10;76.30;;;;;;5043780;28;20493;-65
2023/01/04 01:11:43;;;;;;;12.25;7.57;;;9.00;76.20;;;;;;5043415;28;20451;-65
2023/01/04 01:14:17;;;;;;;15.80;8.13;;;9.00;76.10;;;;;;5043511;28;20228;-64
2023/01/04 01:16:46;;;;;;;15.10;8.50;;;9.00;76.20;;;;;;5042311;28;20493;-65
2023/01/04 01:19:26;;;;;;;11.43;7.30;;;8.90;76.40;;;;;;5040884;28;20986;-64
2023/01/04 01:21:55;;;;;;;12.97;7.90;;;8.90;76.10;;;;;;5042678;28;20550;-66
2023/01/04 01:24:23;;;;;;;14.30;8.43;;;8.80;76.10;;;;;;5043274;28;20463;-65
2023/01/04 01:26:51;;;;;;;12.52;8.27;;;8.80;76.30;;;;;;5042497;28;20501;-65
2023/01/04 01:29:21;;;;;;;14.17;8.70;;;8.80;76.30;;;;;;5041895;28;20209;-65
2023/01/04 01:31:49;;;;;;;44.20;20.60;;;8.70;76.30;;;;;;5042627;28;20447;-65
2023/01/04 01:34:17;;;;;;;19.42;10.48;;;8.70;76.20;;;;;;5041840;28;20589;-65
2023/01/04 01:36:45;;;;;;;26.23;12.48;;;8.60;76.10;;;;;;5041662;28;20634;-65
2023/01/04 01:39:12;;;;;;;26.52;14.35;;;8.60;76.20;;;;;;5041436;28;20197;-66
2023/01/04 01:41:41;;;;;;;20.40;12.27;;;8.60;76.40;;;;;;5041214;28;20208;-66
2023/01/04 01:44:42;;;;;;;16.70;11.80;;;8.60;76.40;;;;;;5041617;28;20217;-65
2023/01/04 01:47:15;;;;;;;18.08;11.45;;;8.60;76.60;;;;;;5039025;28;20469;-65
2023/01/04 01:49:46;;;;;;;18.60;11.93;;;8.60;76.60;;;;;;5039411;28;20290;-65
2023/01/04 01:52:17;;;;;;;20.20;12.93;;;8.60;76.50;;;;;;5042732;28;20212;-65
2023/01/04 01:54:48;;;;;;;19.38;12.75;;;8.60;76.60;;;;;;5041465;28;20486;-67
2023/01/04 01:57:19;;;;;;;20.77;13.40;;;8.60;76.70;;;;;;5042119;28;20232;-65
2023/01/04 01:59:49;;;;;;;20.77;12.35;;;8.60;76.70;;;;;;5041513;28;20508;-64
2023/01/04 02:02:19;;;;;;;22.73;13.30;;;8.60;76.80;;;;;;5042310;28;20216;-65
2023/01/04 02:04:50;;;;;;;18.10;12.13;;;8.70;76.90;;;;;;5041573;28;20467;-64
2023/01/04 02:07:21;;;;;;;19.52;12.80;;;8.70;77.00;;;;;;5039180;28;20459;-65
2023/01/04 02:09:49;;;;;;;21.23;14.00;;;8.80;77.10;;;;;;5042336;28;20318;-65
2023/01/04 02:12:18;;;;;;;20.80;12.73;;;8.80;77.00;;;;;;5042411;28;20910;-64
2023/01/04 02:14:48;;;;;;;20.37;13.50;;;8.80;77.10;;;;;;5042577;28;20232;-65
2023/01/04 02:17:29;;;;;;;22.48;13.38;;;8.80;77.20;;;;;;5042065;28;20495;-65
2023/01/04 02:20:40;;;;;;;20.97;12.77;;;8.80;77.20;;;;;;5041277;28;20249;-65
2023/01/04 02:24:04;;;;;;;26.63;13.57;;;8.90;77.20;;;;;;5040907;28;20579;-65
2023/01/04 02:27:06;;;;;;;20.77;13.20;;;8.90;77.20;;;;;;5040986;28;20448;-66
2023/01/04 02:30:04;;;;;;;30.00;16.57;;;8.90;77.20;;;;;;5041950;28;20449;-64
2023/01/04 02:32:46;;;;;;;27.40;16.90;;;8.90;77.20;;;;;;5041885;28;20439;-65
2023/01/04 02:35:21;;;;;;;33.43;18.37;;;8.90;77.10;;;;;;5038408;28;20478;-65
2023/01/04 02:37:58;;;;;;;32.20;18.83;;;8.80;77.10;;;;;;5041899;28;20488;-65
2023/01/04 02:40:32;;;;;;;25.03;15.47;;;8.80;77.20;;;;;;5040646;28;20215;-65
2023/01/04 02:46:12;;;;;;;20.00;13.70;;;8.80;77.40;;;;;;5000770;28;20209;-65
2023/01/04 02:51:29;;;;;;;17.87;12.67;;;8.80;77.40;;;;;;5025745;28;20467;-64
2023/01/04 02:54:00;;;;;;;23.67;13.30;;;8.70;77.40;;;;;;5044208;28;20487;-66
2023/01/04 02:56:40;;;;;;;17.10;12.70;;;8.70;77.50;;;;;;5042689;28;20493;-65
2023/01/04 02:59:23;;;;;;;19.50;13.20;;;8.70;77.50;;;;;;5039952;28;20447;-65
2023/01/04 03:07:51;;;;;;;18.20;13.60;;;8.70;77.60;;;;;;5042190;28;20443;-65
2023/01/04 03:10:24;;;;;;;18.55;13.32;;;8.70;77.50;;;;;;5042173;28;20488;-65
2023/01/04 03:12:59;;;;;;;20.50;12.93;;;8.70;77.50;;;;;;5041595;28;20201;-65
2023/01/04 03:15:31;;;;;;;20.33;11.90;;;8.70;77.60;;;;;;5042537;28;20653;-65
2023/01/04 03:18:02;;;;;;;18.13;12.10;;;8.70;77.60;;;;;;5040755;28;20865;-65
2023/01/04 03:20:32;;;;;;;18.80;11.70;;;8.70;77.50;;;;;;5041691;28;20459;-65
2023/01/04 03:37:23;;;;;;;14.43;10.20;;;8.70;77.50;;;;;;5004205;28;20567;-65
2023/01/04 03:48:38;;;;;;;17.27;10.80;;;8.60;77.70;;;;;;5036430;28;20468;-64
2023/01/04 03:51:14;;;;;;;16.47;10.67;;;8.60;77.80;;;;;;5041181;28;21235;-65
2023/01/04 03:53:51;;;;;;;15.80;9.75;;;8.60;77.70;;;;;;5041883;28;20474;-64
2023/01/04 03:56:21;;;;;;;14.63;9.70;;;8.60;77.70;;;;;;5045273;28;20266;-66
2023/01/04 03:58:50;;;;;;;15.20;9.80;;;8.60;77.70;;;;;;5044749;28;20516;-65
2023/01/04 04:01:19;;;;;;;15.87;10.43;;;8.60;77.70;;;;;;5045347;28;21002;-67
2023/01/04 04:09:20;;;;;;;14.27;9.60;;;8.60;77.70;;;;;;5045466;28;20822;-64
2023/01/04 04:11:48;;;;;;;14.25;9.98;;;8.60;77.80;;;;;;5045758;28;21221;-65
2023/01/04 04:14:16;;;;;;;13.10;9.23;;;8.50;77.90;;;;;;5042642;28;20228;-66
2023/01/04 04:16:44;;;;;;;14.80;10.27;;;8.50;78.00;;;;;;5043914;28;20479;-65
2023/01/04 04:19:12;;;;;;;13.88;9.60;;;8.50;78.00;;;;;;5046639;28;20546;-66
2023/01/04 04:21:40;;;;;;;17.27;10.93;;;8.50;78.10;;;;;;5044898;28;20709;-66
2023/01/04 04:24:23;;;;;;;16.83;10.77;;;8.50;78.10;;;;;;5044624;28;20290;-66
2023/01/04 04:26:53;;;;;;;14.10;10.37;;;8.60;78.10;;;;;;5045266;28;20451;-66
2023/01/04 04:29:21;;;;;;;13.05;9.88;;;8.60;78.10;;;;;;5045167;28;20455;-66
2023/01/04 04:31:49;;;;;;;21.10;11.52;;;8.60;78.00;;;;;;5043257;28;20213;-65
2023/01/04 04:34:17;;;;;;;15.10;9.50;;;8.60;78.00;;;;;;5044172;28;20220;-66
2023/01/04 04:36:45;;;;;;;13.63;9.90;;;8.60;78.00;;;;;;5045633;28;20482;-67
2023/01/04 04:39:13;;;;;;;15.30;10.13;;;8.60;78.00;;;;;;5045301;28;20469;-65
2023/01/04 04:41:40;;;;;;;12.47;9.00;;;8.60;78.10;;;;;;5043313;28;20550;-65
2023/01/04 04:44:12;;;;;;;13.98;9.70;;;8.60;78.10;;;;;;5045123;28;20490;-65
2023/01/04 04:46:40;;;;;;;15.43;9.57;;;8.60;78.00;;;;;;5042605;28;20197;-65
2023/01/04 04:49:09;;;;;;;16.23;9.60;;;8.60;78.00;;;;;;5044690;28;20532;-65
2023/01/04 04:51:38;;;;;;;14.00;9.87;;;8.70;78.10;;;;;;5042924;28;21028;-66
2023/01/04 04:54:07;;;;;;;12.53;8.53;;;8.60;78.00;;;;;;5041064;28;20501;-67
2023/01/04 04:56:36;;;;;;;16.13;9.63;;;8.60;78.10;;;;;;5043023;28;20556;-66
2023/01/04 04:59:05;;;;;;;15.05;9.30;;;8.60;77.90;;;;;;5045413;28;20516;-66
2023/01/04 05:01:34;;;;;;;18.17;8.57;;;8.60;78.00;;;;;;5043173;28;20228;-65
2023/01/04 05:04:03;;;;;;;13.20;8.80;;;8.60;78.10;;;;;;5044472;28;20466;-66
2023/01/04 05:06:31;;;;;;;14.83;8.20;;;8.60;78.10;;;;;;5044491;28;20485;-65
2023/01/04 05:08:59;;;;;;;14.60;9.43;;;8.60;78.10;;;;;;5042763;28;20466;-65
2023/01/04 05:14:09;;;;;;;15.33;9.30;;;8.60;78.10;;;;;;5042676;28;20498;-65
2023/01/04 05:16:38;;;;;;;15.43;9.47;;;8.60;78.20;;;;;;5043753;28;20521;-67
2023/01/04 05:19:06;;;;;;;11.20;8.33;;;8.60;78.20;;;;;;5044285;28;20807;-65
2023/01/04 05:21:34;;;;;;;13.87;8.13;;;8.60;78.10;;;;;;5043093;28;20459;-66
2023/01/04 05:24:02;;;;;;;15.80;8.33;;;8.70;78.10;;;;;;5042609;28;20517;-66
2023/01/04 05:26:30;;;;;;;15.33;10.50;;;8.70;78.00;;;;;;5044407;28;20459;-67
2023/01/04 05:28:58;;;;;;;14.03;8.73;;;8.60;78.00;;;;;;5044025;28;20532;-67
2023/01/04 05:31:25;;;;;;;13.57;8.73;;;8.60;78.00;;;;;;5039913;28;20470;-66
2023/01/04 05:33:55;;;;;;;13.03;9.60;;;8.60;78.00;;;;;;5041951;28;20225;-66
2023/01/04 05:36:23;;;;;;;11.70;8.47;;;8.60;78.00;;;;;;5059044;28;20459;-67
2023/01/04 05:38:50;;;;;;;10.60;7.67;;;8.60;77.90;;;;;;5042810;28;20532;-66
2023/01/04 05:44:04;;;;;;;10.90;7.63;;;8.60;78.20;;;;;;5042165;28;20228;-66
2023/01/04 05:46:31;;;;;;;11.98;7.20;;;8.60;78.10;;;;;;5041550;28;20467;-65
2023/01/04 05:49:01;;;;;;;11.80;7.45;;;8.60;78.10;;;;;;5042910;28;20867;-66
2023/01/04 05:51:29;;;;;;;13.10;7.55;;;8.60;78.00;;;;;;5043745;28;20275;-65
2023/01/04 05:53:57;;;;;;;10.23;7.45;;;8.70;78.10;;;;;;5042992;28;20223;-66
2023/01/04 05:56:24;;;;;;;11.70;7.50;;;8.70;78.10;;;;;;5041437;28;20209;-65
2023/01/04 05:58:52;;;;;;;10.23;7.15;;;8.70;78.00;;;;;;5042784;28;20558;-65
2023/01/04 06:01:20;;;;;;;13.00;7.75;;;8.60;78.00;;;;;;5041697;28;20208;-65
2023/01/04 06:03:48;;;;;;;12.10;8.13;;;8.60;78.00;;;;;;5041964;28;20267;-65
2023/01/04 06:06:18;;;;;;;14.77;7.85;;;8.60;78.00;;;;;;5042546;28;20463;-65
2023/01/04 06:08:46;;;;;;;10.40;7.83;;;8.60;78.10;;;;;;5041618;28;20261;-66
2023/01/04 06:11:13;;;;;;;11.80;7.97;;;8.70;78.10;;;;;;5042937;28;20479;-66
2023/01/04 06:13:41;;;;;;;9.93;6.75;;;8.70;78.00;;;;;;5042157;28;20489;-65
2023/01/04 06:16:09;;;;;;;11.53;7.17;;;8.70;78.00;;;;;;5041340;28;20201;-65
2023/01/04 06:18:37;;;;;;;14.20;8.37;;;8.70;78.00;;;;;;5042443;28;20474;-66
2023/01/04 06:21:05;;;;;;;12.47;7.60;;;8.70;78.00;;;;;;5042744;28;20467;-65
2023/01/04 06:23:34;;;;;;;12.80;8.53;;;8.60;77.90;;;;;;5042579;28;20541;-64
2023/01/04 06:26:02;;;;;;;10.50;7.57;;;8.60;77.80;;;;;;5042362;28;20529;-65
2023/01/04 06:28:30;;;;;;;11.57;6.80;;;8.60;77.90;;;;;;5042809;28;20467;-66
2023/01/04 06:31:08;;;;;;;10.77;7.27;;;8.60;77.90;;;;;;5037436;28;20463;-66
2023/01/04 06:33:37;;;;;;;11.20;7.43;;;8.60;78.00;;;;;;5040445;28;20490;-66
2023/01/04 06:36:06;;;;;;;11.38;6.90;;;8.60;78.00;;;;;;5042840;28;20911;-66
2023/01/04 06:38:47;;;;;;;11.00;7.65;;;8.60;78.10;;;;;;5038986;28;20246;-65
2023/01/04 06:41:15;;;;;;;10.73;7.07;;;8.60;78.10;;;;;;5042599;28;20212;-65
2023/01/04 06:43:44;;;;;;;11.50;7.32;;;8.60;78.10;;;;;;5041702;28;20513;-65
2023/01/04 06:46:12;;;;;;;12.35;6.70;;;8.60;78.10;;;;;;5041149;28;20262;-64
2023/01/04 06:48:40;;;;;;;12.90;6.93;;;8.60;78.00;;;;;;5038647;28;20772;-65
2023/01/04 06:51:08;;;;;;;8.83;6.13;;;8.60;78.00;;;;;;5037259;28;20536;-65
2023/01/04 06:53:36;;;;;;;10.50;7.40;;;8.60;78.00;;;;;;5040040;28;20478;-65
2023/01/04 06:56:06;;;;;;;11.05;6.55;;;8.60;78.00;;;;;;5038299;28;20533;-66
2023/01/04 06:58:34;;;;;;;12.27;7.47;;;8.60;78.00;;;;;;5038160;28;20582;-66
2023/01/04 07:01:03;;;;;;;12.93;7.47;;;8.60;78.10;;;;;;5038419;28;20967;-66
2023/01/04 07:03:31;;;;;;;12.97;6.83;;;8.60;78.10;;;;;;5041786;28;20991;-66
2023/01/04 07:05:59;;;;;;;10.18;6.30;;;8.60;78.00;;;;;;5060169;28;20463;-66
2023/01/04 07:08:27;;;;;;;10.00;6.07;;;8.60;78.00;;;;;;5043148;28;20274;-66
2023/01/04 07:10:55;;;;;;;10.77;6.23;;;8.60;78.10;;;;;;5040509;28;20458;-67
2023/01/04 07:13:24;;;;;;;9.63;5.75;;;8.60;78.10;;;;;;5041306;28;20545;-65
2023/01/04 07:15:52;;;;;;;9.63;6.03;;;8.60;78.10;;;;;;5041490;28;20208;-66
2023/01/04 07:18:21;;;;;;;10.07;5.60;;;8.60;78.20;;;;;;5041491;28;21685;-65
2023/01/04 07:20:49;;;;;;;9.27;5.20;;;8.60;78.20;;;;;;5040909;28;20923;-66
2023/01/04 07:23:17;;;;;;;8.70;5.70;;;8.60;78.20;;;;;;5040672;28;20537;-66
2023/01/04 07:25:45;;;;;;;11.75;5.35;;;8.60;78.10;;;;;;5040474;28;20463;-66
2023/01/04 07:29:13;;;;;;;7.30;4.90;;;8.60;78.20;;;;;;5042474;28;20213;-65
2023/01/04 07:31:06;;;;;;;8.35;5.25;;;8.60;78.10;;;;;;5044656;28;20492;-65
2023/01/04 07:33:34;;;;;;;7.70;4.80;;;8.60;78.20;;;;;;5043823;28;20246;-66
2023/01/04 07:36:04;;;;;;;8.60;4.80;;;8.60;78.10;;;;;;5045749;28;21026;-65
2023/01/04 07:38:33;;;;;;;9.07;4.60;;;8.60;78.20;;;;;;5046689;28;20490;-66
2023/01/04 07:41:01;;;;;;;7.73;4.73;;;8.60;78.20;;;;;;5044659;28;20462;-66
2023/01/04 07:43:29;;;;;;;8.57;4.72;;;8.60;78.20;;;;;;5045387;28;20483;-67
2023/01/04 07:45:57;;;;;;;7.63;4.10;;;8.60;78.30;;;;;;5043643;28;20204;-67
2023/01/04 07:48:28;;;;;;;7.20;4.00;;;8.60;78.30;;;;;;5044714;28;20635;-65
2023/01/04 07:50:56;;;;;;;7.93;4.60;;;8.60;78.30;;;;;;5045339;28;20447;-65
2023/01/04 07:53:24;;;;;;;7.00;4.00;;;8.60;78.20;;;;;;5045249;28;20483;-65
2023/01/04 07:55:56;;;;;;;6.45;3.85;;;8.60;78.30;;;;;;5045769;28;20458;-65
2023/01/04 07:58:24;;;;;;;8.95;4.18;;;8.60;78.20;;;;;;5044057;28;20240;-65
2023/01/04 08:00:52;;;;;;;7.22;3.78;;;8.60;78.20;;;;;;5043341;28;20201;-65
2023/01/04 08:03:20;;;;;;;8.68;3.38;;;8.60;78.20;;;;;;5044678;28;20732;-65
2023/01/04 08:05:50;;;;;;;7.87;3.83;;;8.50;78.30;;;;;;5044701;28;20212;-65
2023/01/04 08:08:18;;;;;;;10.20;4.07;;;8.50;78.40;;;;;;5044630;28;21050;-65
2023/01/04 08:10:46;;;;;;;7.43;3.73;;;8.60;78.30;;;;;;5042873;28;20463;-66
2023/01/04 08:13:14;;;;;;;6.27;3.70;;;8.60;78.30;;;;;;5043311;28;20588;-66
2023/01/04 08:15:41;;;;;;;5.87;3.40;;;8.60;78.40;;;;;;5042044;28;20462;-65
2023/01/04 08:18:10;;;;;;;6.77;3.03;;;8.60;78.40;;;;;;5043785;28;20827;-65
2023/01/04 08:20:37;;;;;;;5.87;3.10;;;8.70;78.30;;;;;;5043911;28;20524;-66
2023/01/04 08:23:07;;;;;;;6.17;3.20;;;8.70;78.30;;;;;;5042122;28;20471;-66
2023/01/04 08:25:35;;;;;;;6.60;3.47;;;8.70;78.30;;;;;;5045289;28;20454;-65
2023/01/04 08:28:03;;;;;;;5.63;3.17;;;8.70;78.40;;;;;;5045334;28;20451;-65
2023/01/04 08:30:31;;;;;;;8.60;3.50;;;8.80;78.30;;;;;;5044977;28;21049;-66
2023/01/04 08:32:59;;;;;;;5.03;3.23;;;8.80;78.10;;;;;;5044645;28;20454;-66
2023/01/04 08:35:27;;;;;;;7.03;3.47;;;8.80;78.10;;;;;;5045752;28;20968;-65
2023/01/04 08:37:55;;;;;;;6.47;3.33;;;8.80;78.30;;;;;;5045131;28;20451;-65
2023/01/04 08:40:44;;;;;;;7.00;3.10;;;8.80;78.30;;;;;;5044457;28;20589;-64
2023/01/04 08:43:28;;;;;;;5.73;3.37;;;8.80;78.30;;;;;;5043879;28;20551;-67
2023/01/04 08:45:56;;;;;;;6.77;2.97;;;8.80;78.30;;;;;;5043498;28;20450;-65
2023/01/04 08:48:24;;;;;;;6.43;3.10;;;8.90;78.30;;;;;;5044687;28;20807;-66
2023/01/04 08:50:52;;;;;;;5.35;2.85;;;8.90;78.30;;;;;;5043948;28;20204;-65
2023/01/04 08:53:20;;;;;;;7.10;3.37;;;8.90;78.30;;;;;;5043664;28;20343;-65
2023/01/04 08:55:53;;;;;;;6.30;3.17;;;8.90;78.40;;;;;;5041364;28;20475;-64
2023/01/04 08:58:21;;;;;;;6.33;3.33;;;8.90;78.30;;;;;;5041775;28;20463;-65
2023/01/04 09:00:49;;;;;;;4.97;3.10;;;8.90;78.40;;;;;;5041057;28;20553;-65
2023/01/04 09:03:17;;;;;;;6.20;2.90;;;8.90;78.40;;;;;;5043373;28;20467;-67
2023/01/04 09:05:45;;;;;;;11.02;3.85;;;8.90;78.40;;;;;;5042730;28;20538;-66
2023/01/04 09:08:13;;;;;;;5.10;2.70;;;8.90;78.50;;;;;;5040657;28;20197;-66
2023/01/04 09:10:41;;;;;;;7.32;3.60;;;8.90;78.40;;;;;;5043187;28;20870;-67
2023/01/04 09:13:10;;;;;;;6.20;2.87;;;8.90;78.50;;;;;;5043759;28;20290;-66
2023/01/04 09:15:38;;;;;;;6.40;3.40;;;8.90;78.50;;;;;;5040518;28;20463;-67
2023/01/04 09:18:07;;;;;;;8.20;3.20;;;8.90;78.50;;;;;;5044810;28;20303;-66
2023/01/04 09:20:55;;;;;;;5.13;2.37;;;8.90;78.50;;;;;;5043209;28;20513;-68
2023/01/04 09:23:23;;;;;;;7.13;3.10;;;8.90;78.40;;;;;;5041916;28;20483;-66
2023/01/04 09:25:51;;;;;;;9.53;3.10;;;8.90;78.50;;;;;;5042984;28;20455;-67
2023/01/04 09:28:20;;;;;;;9.83;2.93;;;8.90;78.50;;;;;;5037413;28;20537;-66
2023/01/04 09:30:48;;;;;;;4.80;2.50;;;9.00;78.40;;;;;;5040723;28;20881;-66
2023/01/04 09:33:16;;;;;;;5.10;2.10;;;9.00;78.40;;;;;;5041066;28;21427;-66
2023/01/04 09:35:44;;;;;;;5.80;2.70;;;9.00;78.40;;;;;;5042950;28;20443;-64
2023/01/04 09:38:12;;;;;;;8.40;2.60;;;9.00;78.50;;;;;;5041658;28;20474;-65
2023/01/04 09:40:52;;;;;;;4.90;2.00;;;9.00;78.50;;;;;;5041611;28;20482;-65
2023/01/04 09:43:23;;;;;;;5.20;2.50;;;9.00;78.60;;;;;;5039228;28;20462;-65
2023/01/04 09:45:58;;;;;;;5.67;2.40;;;9.00;78.60;;;;;;5039566;28;20513;-65
2023/01/04 09:48:30;;;;;;;4.90;2.20;;;9.00;78.60;;;;;;5043336;28;20469;-68
2023/01/04 09:51:01;;;;;;;13.17;2.57;;;9.00;78.60;;;;;;5041433;28;20463;-65
2023/01/04 09:53:33;;;;;;;5.47;2.43;;;9.00;78.70;;;;;;5041777;28;20494;-65
2023/01/04 09:56:08;;;;;;;6.03;1.97;;;9.10;78.70;;;;;;5044646;28;21290;-65
2023/01/04 09:58:40;;;;;;;6.43;2.03;;;9.10;78.70;;;;;;5042644;28;20993;-67
2023/01/04 10:01:14;;;;;;;4.80;1.80;;;9.10;78.70;;;;;;5041918;28;20495;-67
2023/01/04 10:03:47;;;;;;;5.23;1.87;;;9.10;78.70;;;;;;5040735;28;20483;-67
2023/01/04 10:06:15;;;;;;;5.00;2.00;;;9.10;78.70;;;;;;5040192;28;20467;-67
2023/01/04 10:08:44;;;;;;;4.73;1.80;;;9.10;78.80;;;;;;5037016;28;20455;-67
2023/01/04 10:11:25;;;;;;;4.20;1.93;;;9.10;79.10;;;;;;5042131;28;20504;-67
2023/01/04 10:14:10;;;;;;;6.43;2.00;;;9.10;79.10;;;;;;5042383;28;20540;-66
2023/01/04 10:16:50;;;;;;;7.03;2.50;;;9.10;79.10;;;;;;5041930;28;20462;-67
2023/01/04 10:19:50;;;;;;;4.87;1.90;;;9.10;79.10;;;;;;5041280;28;20485;-66
2023/01/04 10:22:45;;;;;;;4.73;2.03;;;9.10;79.20;;;;;;5042484;28;20463;-67
2023/01/04 10:25:23;;;;;;;4.20;1.77;;;9.10;79.20;;;;;;5043153;28;20470;-67
2023/01/04 10:28:02;;;;;;;4.87;2.17;;;9.10;79.20;;;;;;5042622;28;20864;-66
2023/01/04 10:30:39;;;;;;;5.23;1.70;;;9.10;79.30;;;;;;5042407;28;20459;-67
2023/01/04 10:33:12;;;;;;;5.90;2.30;;;9.20;79.30;;;;;;5042297;28;20446;-66
2023/01/04 10:35:43;;;;;;;4.80;1.80;;;9.20;79.30;;;;;;5042509;28;20455;-67
2023/01/04 10:38:17;;;;;;;4.93;1.80;;;9.20;79.30;;;;;;5041451;28;20463;-66
2023/01/04 10:40:47;;;;;;;5.37;1.80;;;9.30;79.30;;;;;;5042370;28;20469;-65
2023/01/04 10:43:25;;;;;;;5.23;2.03;;;9.30;79.30;;;;;;5042779;28;20462;-64
2023/01/04 10:46:04;;;;;;;4.03;1.67;;;9.30;79.40;;;;;;5042406;28;20520;-64
2023/01/04 10:48:38;;;;;;;6.80;2.20;;;9.30;79.40;;;;;;5043169;28;20477;-65
2023/01/04 10:51:06;;;;;;;9.93;1.97;;;9.30;79.30;;;;;;5042700;28;20443;-67
2023/01/04 10:53:44;;;;;;;4.83;1.97;;;9.30;79.40;;;;;;5046226;28;21201;-69
2023/01/04 10:56:19;;;;;;;5.20;2.10;;;9.40;79.40;;;;;;5042821;28;20462;-66
2023/01/04 10:59:03;;;;;;;6.10;1.87;;;9.40;79.40;;;;;;5041799;28;21002;-65
2023/01/04 11:01:38;;;;;;;6.67;2.10;;;9.40;79.40;;;;;;5042622;28;20474;-67
2023/01/04 11:04:13;;;;;;;5.17;1.80;;;9.40;79.40;;;;;;5042654;28;20574;-65
2023/01/04 11:06:48;;;;;;;4.80;1.57;;;9.50;79.30;;;;;;5042867;28;20535;-65
2023/01/04 11:09:21;;;;;;;4.60;1.50;;;9.50;79.30;;;;;;5041345;28;20458;-67
2023/01/04 11:11:55;;;;;;;8.20;2.20;;;9.50;79.40;;;;;;5041785;28;20474;-66
2023/01/04 11:14:24;;;;;;;8.20;2.80;;;9.50;79.40;;;;;;5039486;28;20494;-66
2023/01/04 11:16:59;;;;;;;6.80;2.40;;;9.60;79.40;;;;;;5042133;28;20458;-65
2023/01/04 11:19:28;;;;;;;5.90;2.00;;;9.50;79.50;;;;;;5042244;28;20466;-67
2023/01/04 11:22:02;;;;;;;4.40;1.60;;;9.50;79.50;;;;;;5041850;28;21345;-67
2023/01/04 11:24:32;;;;;;;4.53;1.60;;;9.60;79.60;;;;;;5041956;28;20518;-67
2023/01/04 11:27:06;;;;;;;4.13;1.60;;;9.60;79.60;;;;;;5040998;28;21199;-65
2023/01/04 11:29:40;;;;;;;5.13;2.20;;;9.60;79.60;;;;;;5042430;28;20537;-65
2023/01/04 11:32:17;;;;;;;5.47;1.70;;;9.60;79.70;;;;;;5041952;28;20454;-64
2023/01/04 11:34:48;;;;;;;5.43;2.03;;;9.60;79.70;;;;;;5041753;28;20567;-65
2023/01/04 11:37:33;;;;;;;4.73;2.23;;;9.60;79.70;;;;;;5042926;28;20555;-64
2023/01/04 11:40:17;;;;;;;3.80;1.67;;;9.60;79.70;;;;;;5042278;28;20489;-65
2023/01/04 11:42:47;;;;;;;4.83;1.90;;;9.60;79.90;;;;;;5039285;28;20882;-64
2023/01/04 11:45:24;;;;;;;3.70;1.60;;;9.60;79.90;;;;;;5041573;28;20487;-64
2023/01/04 11:47:56;;;;;;;5.60;1.80;;;9.60;80.00;;;;;;5041423;28;21266;-65
2023/01/04 11:50:36;;;;;;;4.83;1.80;;;9.60;80.00;;;;;;5038535;28;20518;-65
2023/01/04 11:53:26;;;;;;;5.13;2.30;;;9.70;80.30;;;;;;5040885;28;20474;-65
2023/01/04 11:56:09;;;;;;;5.23;1.80;;;9.80;80.50;;;;;;5042596;28;20455;-64
2023/01/04 11:58:37;;;;;;;4.20;1.90;;;9.90;80.60;;;;;;5042129;28;20458;-63
2023/01/04 12:01:09;;;;;;;3.83;1.57;;;10.00;80.50;;;;;;5042420;28;20475;-65
2023/01/04 12:03:39;;;;;;;4.67;1.83;;;10.10;80.50;;;;;;5039673;28;20474;-64
2023/01/04 12:06:15;;;;;;;5.23;1.90;;;10.20;80.30;;;;;;5041416;28;20543;-65
2023/01/04 12:08:43;;;;;;;5.87;2.03;;;10.20;80.30;;;;;;5040103;28;20447;-65
2023/01/04 12:11:20;;;;;;;5.43;2.43;;;10.30;80.20;;;;;;5040224;28;21467;-64
2023/01/04 12:13:48;;;;;;;5.57;2.00;;;10.40;80.20;;;;;;5042267;28;21326;-64
2023/01/04 12:16:25;;;;;;;4.17;1.90;;;10.40;80.10;;;;;;5048320;28;21004;-65
2023/01/04 12:18:55;;;;;;;6.30;2.30;;;10.50;80.20;;;;;;5045870;28;21105;-65
2023/01/04 12:21:25;;;;;;;4.50;1.80;;;10.50;80.00;;;;;;5045249;28;20628;-64
2023/01/04 12:23:54;;;;;;;4.67;2.10;;;10.50;80.10;;;;;;5043257;28;20479;-65
2023/01/04 12:26:23;;;;;;;4.50;2.13;;;10.60;80.10;;;;;;5042935;28;20892;-64
2023/01/04 12:29:12;;;;;;;7.30;2.40;;;10.70;80.10;;;;;;5043441;28;20447;-65
2023/01/04 12:31:41;;;;;;;4.80;1.93;;;10.70;80.00;;;;;;5044475;28;20959;-65
2023/01/04 12:34:40;;;;;;;5.10;1.77;;;10.70;80.10;;;;;;5044231;28;20548;-65
2023/01/04 12:37:08;;;;;;;4.70;2.13;;;10.70;79.80;;;;;;5044558;28;20455;-66
2023/01/04 12:39:44;;;;;;;4.20;1.90;;;10.70;79.80;;;;;;5043539;28;20471;-65
2023/01/04 12:42:16;;;;;;;4.50;1.97;;;10.70;80.00;;;;;;5045184;28;20501;-64
2023/01/04 12:45:16;;;;;;;4.63;2.00;;;10.70;80.00;;;;;;5041959;28;20971;-66
2023/01/04 12:51:22;;;;;;;4.30;1.90;;;10.80;80.00;;;;;;5040802;28;20876;-64
2023/01/04 12:54:01;;;;;;;4.73;2.23;;;10.80;79.90;;;;;;5041523;28;20487;-66
2023/01/04 12:57:06;;;;;;;8.47;1.93;;;10.80;80.00;;;;;;5042647;28;20466;-66
2023/01/04 12:59:36;;;;;;;5.50;2.10;;;10.80;80.10;;;;;;5046126;28;20455;-66
2023/01/04 13:02:22;;;;;;;6.10;2.47;;;10.80;79.90;;;;;;5045426;28;20467;-67
2023/01/04 13:04:53;;;;;;;5.73;1.80;;;10.90;79.90;;;;;;5043390;28;20478;-66
2023/01/04 13:07:44;;;;;;;3.60;1.70;;;10.90;79.90;;;;;;5043822;28;20540;-65
2023/01/04 13:10:21;;;;;;;3.83;1.77;;;10.90;79.80;;;;;;5044095;28;20563;-65
2023/01/04 13:13:03;;;;;;;4.27;2.23;;;10.90;79.80;;;;;;5041734;28;20459;-66
2023/01/04 13:15:45;;;;;;;3.70;1.80;;;10.90;79.70;;;;;;5041708;28;20463;-65
2023/01/04 13:18:36;;;;;;;4.27;2.30;;;10.90;79.70;;;;;;5036498;28;20466;-66
2023/01/04 13:21:19;;;;;;;4.40;1.80;;;10.80;79.90;;;;;;5040261;28;21262;-66
2023/01/04 13:23:50;;;;;;;4.10;1.90;;;10.80;79.90;;;;;;5044331;28;20475;-65
2023/01/04 13:26:37;;;;;;;5.00;1.77;;;10.90;79.90;;;;;;5044493;28;20451;-66
2023/01/04 13:29:17;;;;;;;6.90;2.13;;;10.90;79.80;;;;;;5043694;28;20797;-65
2023/01/04 13:31:51;;;;;;;4.70;2.57;;;10.80;79.90;;;;;;5043268;28;20959;-69
2023/01/04 13:34:22;;;;;;;5.00;2.30;;;10.90;79.90;;;;;;5044813;28;20476;-66
2023/01/04 13:37:00;;;;;;;4.50;2.20;;;10.80;80.00;;;;;;5042624;28;21184;-66
2023/01/04 13:39:28;;;;;;;5.33;2.47;;;10.90;79.90;;;;;;5043768;28;20462;-66
2023/01/04 13:41:57;;;;;;;4.60;2.23;;;10.80;79.90;;;;;;5042643;28;20556;-66
2023/01/04 13:44:48;;;;;;;7.33;2.60;;;10.90;80.00;;;;;;5043924;28;20540;-65
2023/01/04 13:47:38;;;;;;;5.63;2.70;;;10.90;79.90;;;;;;5042270;28;20486;-66
2023/01/04 13:50:27;;;;;;;5.53;2.90;;;10.90;80.00;;;;;;5043412;28;20497;-66
2023/01/04 13:52:56;;;;;;;5.90;2.73;;;10.90;80.00;;;;;;5041337;28;20451;-67
2023/01/04 13:55:36;;;;;;;6.60;2.83;;;10.90;80.00;;;;;;5043982;28;20461;-65
2023/01/04 13:58:06;;;;;;;7.23;2.70;;;10.90;80.10;;;;;;5041194;28;20478;-65
2023/01/04 14:00:42;;;;;;;5.50;2.23;;;10.90;80.10;;;;;;5041567;28;20546;-66
2023/01/04 14:03:28;;;;;;;4.87;2.00;;;10.90;80.20;;;;;;5040276;28;20482;-65
2023/01/04 14:06:11;;;;;;;4.93;2.07;;;10.90;80.30;;;;;;5039175;28;20486;-64